createdAt,value
2022-11-14T00:02:41.533Z,18.80
2022-11-14T00:05:27.917Z,19.25
2022-11-14T00:08:18.772Z,19.25
2022-11-14T00:11:05.093Z,19.85
2022-11-14T00:13:51.115Z,17.98
2022-11-14T00:16:38.314Z,19.02
2022-11-14T00:19:24.450Z,20.70
2022-11-14T00:22:10.544Z,20.20
2022-11-14T00:24:56.781Z,19.83
2022-11-14T00:27:43.107Z,19.30
2022-11-14T00:30:29.159Z,19.33
2022-11-14T00:33:20.128Z,19.90
2022-11-14T00:36:06.922Z,19.58
2022-11-14T00:38:55.033Z,21.00
2022-11-14T00:41:42.001Z,20.85
2022-11-14T00:44:28.115Z,20.88
2022-11-14T00:47:14.345Z,21.25
2022-11-14T00:50:00.283Z,21.00
2022-11-14T00:52:46.118Z,21.30
2022-11-14T00:55:32.102Z,21.02
2022-11-14T00:58:17.902Z,20.50
2022-11-14T01:01:04.511Z,20.30
2022-11-14T01:03:51.796Z,21.27
2022-11-14T01:06:37.767Z,20.98
2022-11-14T01:09:23.790Z,20.85
2022-11-14T01:12:09.917Z,20.55
2022-11-14T01:14:56.034Z,20.77
2022-11-14T01:17:42.318Z,20.27
2022-11-14T01:20:28.244Z,19.95
2022-11-14T01:23:16.402Z,20.75
2022-11-14T01:26:04.827Z,20.30
2022-11-14T01:28:50.999Z,20.95
2022-11-14T01:31:36.770Z,19.40
2022-11-14T01:34:23.153Z,19.48
2022-11-14T01:37:09.524Z,21.23
2022-11-14T01:39:55.639Z,19.58
2022-11-14T01:42:41.713Z,19.17
2022-11-14T01:45:51.965Z,20.92
2022-11-14T01:48:37.903Z,19.67
2022-11-14T01:51:29.765Z,20.05
2022-11-14T01:54:29.906Z,19.45
2022-11-14T01:57:19.963Z,19.27
2022-11-14T02:00:09.935Z,19.67
2022-11-14T02:02:57.563Z,19.73
2022-11-14T02:05:45.973Z,18.35
2022-11-14T02:08:33.082Z,20.10
2022-11-14T02:11:19.299Z,19.33
2022-11-14T02:14:06.284Z,20.10
2022-11-14T02:17:14.872Z,19.48
2022-11-14T02:20:11.498Z,19.00
2022-11-14T02:22:57.642Z,19.65
2022-11-14T02:25:43.535Z,19.50
2022-11-14T02:28:29.760Z,19.35
2022-11-14T02:31:16.474Z,20.05
2022-11-14T02:34:02.612Z,20.63
2022-11-14T02:36:48.643Z,19.52
2022-11-14T02:39:34.532Z,20.52
2022-11-14T02:42:20.452Z,18.98
2022-11-14T02:45:07.813Z,19.88
2022-11-14T02:47:53.703Z,19.70
2022-11-14T02:50:39.548Z,20.30
2022-11-14T02:53:25.409Z,20.48
2022-11-14T02:56:11.454Z,20.00
2022-11-14T02:58:58.294Z,18.55
2022-11-14T03:01:44.299Z,19.33
2022-11-14T03:04:30.124Z,19.25
2022-11-14T03:07:16.262Z,19.10
2022-11-14T03:10:02.439Z,19.98
2022-11-14T03:12:52.772Z,20.88
2022-11-14T03:15:39.064Z,20.73
2022-11-14T03:18:25.275Z,20.10
2022-11-14T03:21:14.479Z,20.67
2022-11-14T03:24:00.832Z,20.55
2022-11-14T03:26:46.879Z,20.77
2022-11-14T03:29:32.713Z,19.83
2022-11-14T03:32:18.891Z,20.70
2022-11-14T03:35:05.553Z,18.77
2022-11-14T03:37:56.003Z,21.83
2022-11-14T03:40:42.823Z,20.80
2022-11-14T03:43:34.383Z,19.88
2022-11-14T03:46:20.626Z,20.83
2022-11-14T03:49:07.002Z,21.10
2022-11-14T03:51:53.935Z,19.85
2022-11-14T03:54:40.312Z,20.20
2022-11-14T03:57:26.375Z,20.40
2022-11-14T04:00:12.683Z,19.52
2022-11-14T04:02:58.811Z,20.33
2022-11-14T04:05:45.697Z,18.90
2022-11-14T04:08:32.565Z,20.55
2022-11-14T04:11:19.346Z,19.55
2022-11-14T04:14:05.611Z,19.85
2022-11-14T04:16:51.980Z,19.88
2022-11-14T04:19:38.392Z,21.10
2022-11-14T04:22:24.510Z,20.00
2022-11-14T04:25:10.648Z,19.60
2022-11-14T04:27:56.514Z,20.35
2022-11-14T04:30:42.625Z,19.65
2022-11-14T04:33:29.003Z,20.42
2022-11-14T04:36:14.913Z,21.25
2022-11-14T04:39:01.470Z,21.40
2022-11-14T04:41:47.346Z,21.00
2022-11-14T04:44:33.323Z,20.67
2022-11-14T04:47:19.536Z,19.85
2022-11-14T04:50:06.105Z,21.90
2022-11-14T04:52:53.688Z,20.52
2022-11-14T04:55:39.963Z,20.65
2022-11-14T04:58:26.821Z,21.58
2022-11-14T05:01:14.273Z,20.85
2022-11-14T05:04:00.114Z,20.95
2022-11-14T05:06:46.404Z,21.10
2022-11-14T05:09:32.222Z,22.05
2022-11-14T05:12:18.181Z,22.77
2022-11-14T05:15:04.582Z,22.52
2022-11-14T05:17:50.676Z,21.67
2022-11-14T05:20:36.894Z,20.85
2022-11-14T05:23:24.065Z,21.38
2022-11-14T05:26:16.457Z,22.25
2022-11-14T05:29:02.543Z,23.65
2022-11-14T05:31:48.631Z,23.20
2022-11-14T05:34:34.528Z,22.42
2022-11-14T05:37:20.520Z,22.15
2022-11-14T05:40:07.205Z,23.38
2022-11-14T05:42:56.745Z,22.98
2022-11-14T05:45:42.792Z,24.17
2022-11-14T05:48:29.738Z,22.80
2022-11-14T05:51:16.044Z,23.77
2022-11-14T05:54:02.344Z,23.05
2022-11-14T05:56:48.141Z,24.98
2022-11-14T05:59:33.884Z,24.35
2022-11-14T06:02:19.927Z,23.92
2022-11-14T06:05:06.238Z,23.38
2022-11-14T06:07:59.155Z,24.63
2022-11-14T06:10:45.253Z,24.75
2022-11-14T06:13:31.636Z,25.92
2022-11-14T06:16:19.360Z,25.92
2022-11-14T06:19:05.628Z,25.55
2022-11-14T06:21:51.780Z,25.75
2022-11-14T06:24:37.979Z,26.50
2022-11-14T06:27:24.163Z,26.42
2022-11-14T06:30:10.525Z,25.65
2022-11-14T06:32:59.488Z,27.98
2022-11-14T06:35:45.965Z,26.90
2022-11-14T06:38:33.315Z,26.02
2022-11-14T06:41:21.522Z,26.75
2022-11-14T06:44:08.908Z,25.50
2022-11-14T06:46:54.903Z,24.90
2022-11-14T06:49:41.057Z,25.23
2022-11-14T06:52:27.514Z,25.58
2022-11-14T06:55:13.593Z,26.15
2022-11-14T06:57:59.871Z,24.17
2022-11-14T07:00:45.635Z,24.25
2022-11-14T07:03:32.093Z,25.63
2022-11-14T07:06:21.341Z,23.95
2022-11-14T07:09:07.564Z,25.23
2022-11-14T07:11:53.405Z,24.08
2022-11-14T07:14:39.362Z,25.98
2022-11-14T07:17:30.797Z,23.92
2022-11-14T07:20:18.820Z,23.67
2022-11-14T07:23:04.825Z,23.05
2022-11-14T07:25:50.816Z,21.52
2022-11-14T07:28:38.214Z,24.10
2022-11-14T07:31:24.693Z,22.65
2022-11-14T07:34:11.387Z,24.23
2022-11-14T07:36:57.178Z,22.98
2022-11-14T07:39:43.095Z,24.13
2022-11-14T07:42:30.043Z,24.05
2022-11-14T07:45:16.105Z,25.75
2022-11-14T07:48:02.681Z,25.77
2022-11-14T07:50:48.739Z,23.95
2022-11-14T07:53:35.216Z,25.42
2022-11-14T07:56:22.320Z,23.60
2022-11-14T07:59:08.602Z,23.38
2022-11-14T08:01:54.432Z,22.80
2022-11-14T08:04:43.504Z,21.88
2022-11-14T08:07:29.535Z,22.25
2022-11-14T08:10:15.690Z,22.08
2022-11-14T08:13:30.406Z,21.65
2022-11-14T08:16:13.688Z,21.13
2022-11-14T08:19:00.922Z,21.98
2022-11-14T08:21:47.144Z,22.13
2022-11-14T08:24:33.363Z,23.38
2022-11-14T08:27:19.483Z,22.60
2022-11-14T08:30:05.862Z,22.40
2022-11-14T08:32:52.081Z,22.13
2022-11-14T08:35:38.233Z,22.38
2022-11-14T08:38:24.064Z,23.27
2022-11-14T08:41:10.449Z,22.08
2022-11-14T08:43:56.632Z,21.73
2022-11-14T08:46:42.890Z,21.83
2022-11-14T08:49:28.844Z,20.25
2022-11-14T08:52:16.819Z,20.67
2022-11-14T08:55:03.156Z,21.35
2022-11-14T08:57:50.087Z,20.52
2022-11-14T09:00:36.413Z,19.45
2022-11-14T09:03:22.315Z,20.10
2022-11-14T09:06:08.266Z,20.08
2022-11-14T09:08:54.426Z,20.20
2022-11-14T09:11:40.891Z,19.85
2022-11-14T09:14:27.293Z,20.70
2022-11-14T09:17:13.434Z,21.27
2022-11-14T09:19:59.390Z,21.77
2022-11-14T09:22:45.834Z,22.02
2022-11-14T09:25:32.213Z,21.02
2022-11-14T09:28:18.281Z,22.77
2022-11-14T09:31:06.837Z,23.02
2022-11-14T09:33:52.923Z,23.23
2022-11-14T09:36:39.073Z,22.80
2022-11-14T09:39:25.077Z,22.65
2022-11-14T09:42:32.679Z,23.50
2022-11-14T09:45:18.992Z,22.80
2022-11-14T09:48:10.873Z,24.02
2022-11-14T09:51:16.813Z,24.10
2022-11-14T09:54:44.039Z,24.10
2022-11-14T09:57:30.409Z,22.73
2022-11-14T10:00:23.514Z,22.67
2022-11-14T10:03:32.223Z,23.30
2022-11-14T10:06:30.366Z,21.77
2022-11-14T10:09:44.258Z,21.55
2022-11-14T10:12:39.369Z,21.05
2022-11-14T10:15:48.422Z,20.83
2022-11-14T10:18:40.376Z,20.60
2022-11-14T10:21:38.724Z,20.27
2022-11-14T10:24:46.843Z,20.77
2022-11-14T10:28:05.230Z,20.58
2022-11-14T10:31:35.271Z,20.88
2022-11-14T10:34:34.510Z,21.48
2022-11-14T10:37:28.083Z,19.67
2022-11-14T10:40:24.893Z,20.08
2022-11-14T10:43:21.025Z,19.98
2022-11-14T10:46:42.036Z,19.27
2022-11-14T10:49:32.967Z,19.67
2022-11-14T10:52:37.650Z,20.35
2022-11-14T10:58:35.418Z,19.30
2022-11-14T11:01:45.200Z,18.33
2022-11-14T11:04:34.134Z,19.48
2022-11-14T11:07:44.896Z,18.98
2022-11-14T11:10:51.872Z,18.23
2022-11-14T11:13:54.301Z,19.33
2022-11-14T11:16:40.661Z,17.85
2022-11-14T11:19:27.657Z,18.92
2022-11-14T11:22:30.482Z,18.30
2022-11-14T11:25:28.822Z,17.55
2022-11-14T11:28:20.323Z,18.45
2022-11-14T11:31:09.485Z,18.90
2022-11-14T11:33:55.472Z,18.40
2022-11-14T11:36:50.103Z,18.38
2022-11-14T11:43:31.930Z,18.50
2022-11-14T11:45:50.028Z,17.60
2022-11-14T11:48:40.354Z,17.77
2022-11-14T11:51:27.824Z,17.58
2022-11-14T11:54:20.504Z,17.30
2022-11-14T11:57:20.127Z,18.50
2022-11-14T12:00:14.657Z,18.88
2022-11-14T12:03:01.691Z,17.75
2022-11-14T12:06:06.473Z,17.15
2022-11-14T12:09:14.902Z,18.40
2022-11-14T12:16:39.834Z,19.42
2022-11-14T12:19:41.092Z,21.13
2022-11-14T12:22:33.024Z,19.55
2022-11-14T12:25:38.231Z,17.85
2022-11-14T12:28:59.172Z,18.27
2022-11-14T12:31:46.853Z,23.05
2022-11-14T12:34:38.877Z,24.42
2022-11-14T12:37:37.895Z,22.63
2022-11-14T12:40:29.580Z,21.02
2022-11-14T12:43:36.358Z,20.25
2022-11-14T12:46:23.424Z,21.15
2022-11-14T12:49:38.455Z,23.13
2022-11-14T12:52:55.005Z,22.08
2022-11-14T12:55:44.006Z,21.48
2022-11-14T12:58:45.143Z,29.02
2022-11-14T13:01:31.281Z,21.40
2022-11-14T13:04:35.394Z,21.20
2022-11-14T13:07:45.425Z,19.63
2022-11-14T13:10:41.429Z,19.98
2022-11-14T13:13:46.226Z,19.58
2022-11-14T13:16:51.586Z,20.45
2022-11-14T13:20:05.038Z,20.10
2022-11-14T13:22:51.454Z,21.42
2022-11-14T13:25:37.609Z,20.30
2022-11-14T13:28:38.910Z,20.27
2022-11-14T13:31:42.291Z,21.13
2022-11-14T13:34:58.949Z,20.30
2022-11-14T13:37:53.995Z,18.80
2022-11-14T13:40:51.907Z,19.95
2022-11-14T13:43:40.632Z,20.13
2022-11-14T13:46:36.226Z,19.80
2022-11-14T13:49:55.404Z,20.35
2022-11-14T13:52:44.802Z,20.00
2022-11-14T13:55:46.144Z,18.70
2022-11-14T13:58:38.686Z,20.25
2022-11-14T14:01:30.811Z,30.75
2022-11-14T14:04:46.143Z,22.02
2022-11-14T14:08:10.764Z,22.00
2022-11-14T14:11:24.015Z,20.87
2022-11-14T14:14:19.244Z,21.95
2022-11-14T14:17:23.172Z,22.30
2022-11-14T14:20:34.616Z,21.57
2022-11-14T14:23:27.844Z,21.60
2022-11-14T14:26:35.965Z,21.23
2022-11-14T14:29:25.130Z,20.98
2022-11-14T14:32:17.710Z,21.70
2022-11-14T14:35:35.645Z,22.42
2022-11-14T14:38:28.377Z,22.60
2022-11-14T14:41:18.190Z,23.45
2022-11-14T14:44:04.664Z,22.60
2022-11-14T14:46:52.380Z,23.13
2022-11-14T14:49:39.425Z,22.67
2022-11-14T14:52:30.730Z,22.65
2022-11-14T14:55:23.230Z,23.65
2022-11-14T14:58:30.808Z,25.35
2022-11-14T15:01:20.477Z,24.20
2022-11-14T15:04:08.851Z,25.20
2022-11-14T15:06:58.544Z,25.67
2022-11-14T15:09:56.873Z,24.55
2022-11-14T15:12:43.499Z,25.25
2022-11-14T15:15:30.560Z,26.20
2022-11-14T15:18:25.652Z,26.42
2022-11-14T15:21:23.914Z,28.73
2022-11-14T15:24:22.035Z,27.25
2022-11-14T15:27:17.202Z,27.85
2022-11-14T15:30:06.510Z,33.50
2022-11-14T15:33:01.134Z,29.80
2022-11-14T15:35:47.113Z,29.45
2022-11-14T15:38:49.001Z,29.05
2022-11-14T15:41:35.379Z,28.23
2022-11-14T15:44:33.799Z,26.65
2022-11-14T15:47:30.012Z,27.35
2022-11-14T15:50:16.072Z,27.35
2022-11-14T15:53:04.119Z,26.27
2022-11-14T15:55:50.834Z,28.05
2022-11-14T15:58:36.828Z,28.00
2022-11-14T16:01:26.306Z,28.55
2022-11-14T16:04:22.130Z,28.58
2022-11-14T16:07:12.548Z,29.08
2022-11-14T16:09:58.406Z,31.13
2022-11-14T16:12:48.070Z,29.58
2022-11-14T16:15:37.955Z,29.33
2022-11-14T16:18:24.212Z,30.05
2022-11-14T16:21:18.500Z,30.52
2022-11-14T16:24:05.605Z,28.45
2022-11-14T16:26:51.573Z,28.88
2022-11-14T16:29:37.838Z,29.45
2022-11-14T16:32:26.809Z,29.58
2022-11-14T16:35:18.649Z,30.58
2022-11-14T16:38:04.753Z,29.05
2022-11-14T16:40:50.987Z,29.50
2022-11-14T16:43:37.293Z,29.20
2022-11-14T16:46:24.239Z,30.73
2022-11-14T16:49:15.720Z,28.23
2022-11-14T16:52:07.175Z,29.52
2022-11-14T16:54:53.112Z,29.40
2022-11-14T16:57:40.000Z,29.58
2022-11-14T17:00:25.981Z,29.95
2022-11-14T17:03:12.413Z,29.98
2022-11-14T17:05:58.683Z,30.42
2022-11-14T17:08:44.912Z,30.27
2022-11-14T17:11:31.571Z,29.20
2022-11-14T17:14:17.790Z,29.65
2022-11-14T17:17:03.662Z,32.60
2022-11-14T17:19:50.376Z,31.98
2022-11-14T17:22:36.702Z,33.63
2022-11-14T17:25:23.292Z,33.60
2022-11-14T17:28:09.395Z,35.03
2022-11-14T17:30:55.271Z,35.40
2022-11-14T17:33:41.383Z,37.10
2022-11-14T17:36:30.606Z,36.30
2022-11-14T17:39:17.033Z,37.15
2022-11-14T17:42:02.954Z,38.10
2022-11-14T17:44:49.204Z,36.38
2022-11-14T17:47:35.469Z,35.85
2022-11-14T17:50:21.911Z,36.38
2022-11-14T17:53:08.253Z,37.95
2022-11-14T17:55:57.574Z,37.63
2022-11-14T17:58:44.450Z,38.40
2022-11-14T18:01:31.596Z,37.85
2022-11-14T18:04:17.792Z,37.20
2022-11-14T18:07:04.120Z,35.88
2022-11-14T18:09:50.097Z,38.33
2022-11-14T18:12:36.283Z,36.35
2022-11-14T18:15:27.611Z,38.00
2022-11-14T18:18:14.231Z,36.92
2022-11-14T18:21:16.641Z,38.08
2022-11-14T18:24:02.775Z,35.03
2022-11-14T18:26:49.004Z,35.67
2022-11-14T18:29:35.201Z,38.53
2022-11-14T18:32:21.148Z,37.60
2022-11-14T18:35:07.574Z,37.83
2022-11-14T18:37:53.543Z,36.85
2022-11-14T18:40:43.532Z,37.25
2022-11-14T18:43:32.776Z,39.88
2022-11-14T18:46:23.906Z,39.22
2022-11-14T18:49:11.310Z,38.40
2022-11-14T18:51:57.781Z,40.20
2022-11-14T18:54:43.507Z,39.80
2022-11-14T18:57:29.605Z,37.70
2022-11-14T19:00:15.863Z,39.60
2022-11-14T19:03:05.955Z,40.75
2022-11-14T19:05:52.345Z,45.05
2022-11-14T19:08:38.446Z,45.78
2022-11-14T19:11:43.360Z,41.28
2022-11-14T19:17:18.839Z,40.17
2022-11-14T19:20:08.861Z,42.17
2022-11-14T19:22:58.866Z,40.80
2022-11-14T19:25:44.695Z,43.03
2022-11-14T19:28:30.886Z,43.60
2022-11-14T19:31:17.943Z,44.22
2022-11-14T19:34:03.747Z,45.22
2022-11-14T19:37:05.035Z,41.90
2022-11-14T19:39:55.509Z,39.10
2022-11-14T19:42:41.252Z,40.17
2022-11-14T19:45:27.294Z,41.90
2022-11-14T19:48:13.825Z,39.90
2022-11-14T19:51:00.798Z,39.60
2022-11-14T19:53:46.926Z,39.15
2022-11-14T19:56:33.253Z,41.13
2022-11-14T19:59:24.214Z,39.28
2022-11-14T20:02:14.640Z,38.65
2022-11-14T20:05:01.055Z,37.20
2022-11-14T20:07:47.431Z,38.38
2022-11-14T20:10:47.739Z,38.05
2022-11-14T20:13:37.411Z,35.88
2022-11-14T20:16:29.226Z,36.40
2022-11-14T20:19:16.245Z,38.80
2022-11-14T20:22:03.106Z,36.78
2022-11-14T20:24:49.445Z,41.00
2022-11-14T20:27:35.749Z,42.38
2022-11-14T20:30:21.717Z,38.55
2022-11-14T20:33:09.186Z,38.72
2022-11-14T20:35:56.037Z,46.53
2022-11-14T20:38:42.526Z,47.03
2022-11-14T20:41:28.365Z,51.33
2022-11-14T20:44:14.764Z,70.93
2022-11-14T20:47:01.103Z,78.72
2022-11-14T20:49:47.621Z,96.95
2022-11-14T20:52:35.447Z,46.50
2022-11-14T20:55:21.355Z,40.28
2022-11-14T20:58:07.254Z,38.83
2022-11-14T21:00:54.683Z,39.13
2022-11-14T21:03:41.190Z,37.10
2022-11-14T21:06:27.575Z,40.38
2022-11-14T21:09:13.874Z,39.63
2022-11-14T21:11:59.866Z,40.20
2022-11-14T21:14:46.051Z,39.92
2022-11-14T21:17:32.147Z,37.72
2022-11-14T21:20:18.161Z,37.58
2022-11-14T21:23:04.005Z,36.03
2022-11-14T21:25:49.945Z,37.08
2022-11-14T21:28:38.286Z,36.50
2022-11-14T21:31:33.592Z,34.05
2022-11-14T21:34:19.889Z,36.58
2022-11-14T21:37:06.139Z,36.78
2022-11-14T21:39:52.038Z,36.80
2022-11-14T21:42:40.007Z,35.17
2022-11-14T21:45:26.595Z,35.80
2022-11-14T21:48:12.398Z,35.47
2022-11-14T21:51:11.522Z,33.28
2022-11-14T21:53:59.348Z,34.85
2022-11-14T21:56:45.394Z,36.17
2022-11-14T21:59:31.657Z,34.85
2022-11-14T22:02:36.192Z,35.40
2022-11-14T22:05:22.354Z,36.35
2022-11-14T22:08:08.324Z,40.65
2022-11-14T22:10:59.955Z,41.65
2022-11-14T22:13:45.684Z,40.80
2022-11-14T22:16:32.245Z,46.33
2022-11-14T22:19:19.095Z,41.55
2022-11-14T22:22:05.046Z,42.33
2022-11-14T22:24:51.124Z,41.00
2022-11-14T22:27:37.076Z,39.30
2022-11-14T22:30:22.812Z,38.17
2022-11-14T22:33:08.635Z,38.47
2022-11-14T22:35:54.441Z,41.83
2022-11-14T22:38:41.285Z,41.63
2022-11-14T22:41:32.583Z,37.78
2022-11-14T22:44:19.055Z,37.53
2022-11-14T22:47:04.883Z,39.70
2022-11-14T22:49:50.855Z,40.53
2022-11-14T22:52:36.865Z,43.00
2022-11-14T22:55:22.981Z,43.13
2022-11-14T22:58:09.149Z,45.25
2022-11-14T23:00:55.114Z,44.05
2022-11-14T23:03:54.707Z,44.03
2022-11-14T23:06:40.808Z,45.42
2022-11-14T23:09:27.269Z,47.38
2022-11-14T23:12:13.665Z,44.00
2022-11-14T23:14:59.668Z,44.25
2022-11-14T23:17:45.464Z,42.97
2022-11-14T23:20:31.616Z,46.55
2022-11-14T23:23:17.881Z,45.13
2022-11-14T23:26:12.339Z,45.28
2022-11-14T23:31:45.026Z,40.17
2022-11-14T23:34:31.086Z,40.78
2022-11-14T23:37:17.007Z,41.42
2022-11-14T23:40:03.133Z,43.53
2022-11-14T23:42:49.338Z,43.80
2022-11-14T23:45:35.326Z,41.97
2022-11-14T23:48:22.720Z,41.70
2022-11-14T23:51:09.752Z,43.22
2022-11-14T23:53:55.906Z,43.53
2022-11-14T23:56:42.005Z,46.88
2022-11-14T23:59:28.022Z,44.78
